Accueil
METAR-TAF:

METAR-TAF

Aéroports :

Aéroport de Minna

Minna, Nigeria

latitude: 9-37N, longitude: 6-32E, altitude: 260 m

Observation

Le bulletin a été fait il y a 1 heure et 17 minutes, à 11:00 UTC
Vent 4 kt de sud/sud-est
Température 28°C
Humidité 70%
Pression 1014 hPa
Visibilité 10 km ou plus
Nuages épars à une hauteur de 1000 ft

METAR: DNMN 021100Z 15004KT 9999 SCT010 28/22 Q1014

Heure: 13:17 (12:17 UTC)


TAF: absent

Observations et prévisions météorologiques de plus de 4000 aéroports (messages METAR et TAF).

Les stations disponibles sont représentées par des disques jaunes et rouges sur la carte.

Passer la souris dessus pour voir le nom de la station.

Cliquer dessus pour voir les observations et prévisions météorologiques.

Pour changer de carte: cliquez sur les boutons verts avec une croix noire pour zoomer, sur le bouton vert avec un tiret pour effectuer un zoom arrière, ou sur les flèches vertes pour les cartes adjacentes.


METAR-TAF: